Time;durP1;ratioP1;P1;durP2;ratioP2;P2;SDS_P1;SDS_P2;PMS_P1;PMS_P2;Temp;Humidity;BMP_temperature;BMP_pressure;BME280_temperature;BME280_humidity;BME280_pressure;Samples;Min_cycle;Max_cycle;Signal;HPM_P1;HPM_P2
2024/03/08 00:00:54;;;;;;;28.52;13.82;;;;;;;-1.20;100.00;101860.47;5055375;28;20433;-81
2024/03/08 00:03:28;;;;;;;32.17;14.55;;;;;;;-1.23;100.00;101856.31;5055301;28;20425;-82
2024/03/08 00:06:04;;;;;;;29.08;14.63;;;;;;;-1.24;100.00;101864.50;5058848;28;20446;-80
2024/03/08 00:08:34;;;;;;;28.60;14.15;;;;;;;-1.35;100.00;101855.00;5054888;28;20425;-81
2024/03/08 00:11:08;;;;;;;27.77;14.15;;;;;;;-1.32;100.00;101864.53;5063697;28;20422;-81
2024/03/08 00:13:41;;;;;;;32.28;15.15;;;;;;;-1.13;100.00;101853.44;5060103;28;20933;-82
2024/03/08 00:16:14;;;;;;;31.20;14.88;;;;;;;-1.18;100.00;101852.28;5060699;28;20412;-80
2024/03/08 00:18:43;;;;;;;30.08;14.13;;;;;;;-1.26;100.00;101847.78;5054276;28;20417;-79
2024/03/08 00:21:16;;;;;;;28.58;13.93;;;;;;;-1.32;100.00;101848.50;5058315;28;20423;-81
2024/03/08 00:23:51;;;;;;;27.38;13.90;;;;;;;-1.25;100.00;101855.63;5056853;28;20416;-82
2024/03/08 00:26:19;;;;;;;30.15;13.88;;;;;;;-1.24;100.00;101857.31;5058144;28;20421;-82
2024/03/08 00:28:48;;;;;;;28.52;13.73;;;;;;;-1.33;100.00;101854.84;5060051;28;20776;-79
2024/03/08 00:31:16;;;;;;;28.27;13.30;;;;;;;-1.33;100.00;101850.31;5061367;28;20956;-81
2024/03/08 00:33:45;;;;;;;25.98;13.65;;;;;;;-1.43;100.00;101847.03;5057463;28;20419;-82
2024/03/08 00:36:13;;;;;;;28.52;14.00;;;;;;;-1.45;100.00;101844.53;5061245;28;20417;-80
2024/03/08 00:38:46;;;;;;;29.30;14.07;;;;;;;-1.62;100.00;101848.22;5051839;28;20893;-81
2024/03/08 00:41:21;;;;;;;30.23;13.48;;;;;;;-1.63;100.00;101841.22;5057699;28;20427;-81
2024/03/08 00:43:54;;;;;;;28.85;14.55;;;;;;;-1.41;100.00;101837.84;5058519;28;20431;-82
2024/03/08 00:46:28;;;;;;;28.92;14.85;;;;;;;-1.39;100.00;101841.16;5059472;28;20414;-82
2024/03/08 00:48:57;;;;;;;29.40;14.15;;;;;;;-1.56;100.00;101839.53;5056407;28;20407;-81
2024/03/08 00:51:30;;;;;;;30.50;14.13;;;;;;;-1.63;100.00;101830.53;5057227;28;20431;-82
2024/03/08 00:53:58;;;;;;;27.42;13.98;;;;;;;-1.72;100.00;101832.41;5058669;28;20436;-82
2024/03/08 00:56:33;;;;;;;30.77;13.82;;;;;;;-1.75;100.00;101832.75;5062251;28;20424;-81
2024/03/08 00:59:02;;;;;;;32.28;15.07;;;;;;;-1.73;100.00;101826.25;5059350;28;20425;-83
2024/03/08 01:01:30;;;;;;;30.45;14.50;;;;;;;-1.68;100.00;101831.06;5058801;28;20421;-81
2024/03/08 01:04:03;;;;;;;29.60;14.55;;;;;;;-1.67;100.00;101829.22;5058771;28;20774;-81
2024/03/08 01:06:37;;;;;;;26.77;14.17;;;;;;;-1.58;100.00;101822.88;5055032;28;20486;-81
2024/03/08 01:09:10;;;;;;;33.03;15.02;;;;;;;-1.57;100.00;101819.19;5060447;28;20419;-82
2024/03/08 01:11:42;;;;;;;26.73;13.77;;;;;;;-1.72;100.00;101817.22;5056311;28;21005;-82
2024/03/08 01:14:15;;;;;;;28.88;13.27;;;;;;;-1.73;100.00;101812.06;5060472;28;20409;-82
2024/03/08 01:16:49;;;;;;;30.85;13.80;;;;;;;-1.79;100.00;101813.56;5057294;28;20470;-81
2024/03/08 01:19:23;;;;;;;29.52;13.95;;;;;;;-1.60;100.00;101815.03;5059430;28;20418;-80
2024/03/08 01:21:52;;;;;;;26.45;13.60;;;;;;;-1.68;100.00;101800.88;5057107;28;20409;-81
2024/03/08 01:24:25;;;;;;;28.90;13.80;;;;;;;-1.80;100.00;101798.56;5064047;28;20413;-81
2024/03/08 01:26:55;;;;;;;29.08;13.65;;;;;;;-1.79;100.00;101786.88;5058245;28;20448;-82
2024/03/08 01:29:29;;;;;;;27.13;13.25;;;;;;;-1.82;100.00;101789.03;5057596;28;20445;-80
2024/03/08 01:31:57;;;;;;;31.35;14.07;;;;;;;-1.95;100.00;101790.41;5060094;28;20885;-82
2024/03/08 01:34:31;;;;;;;29.63;13.93;;;;;;;-1.90;100.00;101779.25;5056426;28;20425;-81
2024/03/08 01:37:04;;;;;;;28.50;14.37;;;;;;;-1.95;100.00;101779.72;5054221;28;20491;-81
2024/03/08 01:39:32;;;;;;;26.73;13.32;;;;;;;-1.86;100.00;101771.72;5053521;28;20774;-80
2024/03/08 01:42:08;;;;;;;27.75;13.63;;;;;;;-1.97;100.00;101765.75;5074312;28;20425;-83
2024/03/08 01:44:43;;;;;;;29.50;14.30;;;;;;;-1.98;100.00;101768.59;5052210;28;20432;-82
2024/03/08 01:47:16;;;;;;;28.40;14.10;;;;;;;-1.98;100.00;101757.91;5041755;28;20773;-81
2024/03/08 01:49:50;;;;;;;32.17;14.20;;;;;;;-1.90;100.00;101756.06;5055920;28;20446;-81
2024/03/08 01:52:25;;;;;;;30.50;14.10;;;;;;;-1.82;100.00;101757.03;5055098;28;20420;-82
2024/03/08 01:55:00;;;;;;;30.55;15.35;;;;;;;-1.92;100.00;101751.88;5056297;28;20934;-81
2024/03/08 01:57:37;;;;;;;32.13;15.60;;;;;;;-1.78;100.00;101748.53;5055423;28;20442;-82
2024/03/08 02:00:10;;;;;;;29.20;13.65;;;;;;;-1.87;100.00;101746.88;5061853;28;20437;-81
2024/03/08 02:02:44;;;;;;;31.33;13.95;;;;;;;-1.89;100.00;101735.56;5057225;28;20422;-82
2024/03/08 02:05:17;;;;;;;30.15;14.20;;;;;;;-1.78;100.00;101734.31;5059836;28;20415;-82
2024/03/08 02:07:46;;;;;;;31.58;14.85;;;;;;;-1.85;100.00;101734.22;5061287;28;20420;-80
2024/03/08 02:10:19;;;;;;;30.80;14.50;;;;;;;-1.90;100.00;101725.88;5061113;28;20422;-81
2024/03/08 02:12:54;;;;;;;32.07;14.27;;;;;;;-1.72;100.00;101725.66;5054797;28;20427;-82
2024/03/08 02:15:22;;;;;;;30.77;14.97;;;;;;;-1.72;100.00;101731.00;5057567;28;20427;-80
2024/03/08 02:17:51;;;;;;;33.20;14.25;;;;;;;-1.76;100.00;101727.00;5056484;28;20412;-80
2024/03/08 02:20:19;;;;;;;34.33;14.90;;;;;;;-1.87;100.00;101725.53;5058377;28;20773;-81
2024/03/08 02:22:54;;;;;;;31.88;14.25;;;;;;;-1.83;100.00;101723.38;5053512;28;20419;-81
2024/03/08 02:25:23;;;;;;;32.35;14.20;;;;;;;-1.83;100.00;101721.50;5059039;28;20424;-80
2024/03/08 02:27:56;;;;;;;30.13;14.13;;;;;;;-1.95;100.00;101722.88;5054778;28;20421;-82
2024/03/08 02:30:29;;;;;;;32.90;14.90;;;;;;;-1.95;100.00;101720.22;5056886;28;20429;-80
2024/03/08 02:33:03;;;;;;;31.00;14.52;;;;;;;-2.03;100.00;101715.75;5055373;28;20430;-81
2024/03/08 02:35:32;;;;;;;28.00;14.10;;;;;;;-2.10;100.00;101722.75;5053159;28;20435;-81
2024/03/08 02:38:07;;;;;;;31.77;14.23;;;;;;;-2.17;100.00;101729.78;5054529;28;20419;-80
2024/03/08 02:40:40;;;;;;;32.22;14.38;;;;;;;-2.22;100.00;101725.78;5062715;28;20427;-82
2024/03/08 02:43:15;;;;;;;29.35;13.80;;;;;;;-2.29;100.00;101726.59;5059524;28;20427;-81
2024/03/08 02:45:43;;;;;;;30.60;14.18;;;;;;;-2.31;100.00;101723.28;5054421;28;20436;-81
2024/03/08 02:48:17;;;;;;;28.33;13.52;;;;;;;-2.38;100.00;101725.78;5057585;28;20436;-82
2024/03/08 02:50:51;;;;;;;32.08;14.27;;;;;;;-2.38;100.00;101724.97;5055355;28;20432;-81
2024/03/08 02:53:22;;;;;;;32.53;14.30;;;;;;;-2.46;100.00;101729.31;5055035;28;20425;-80
2024/03/08 02:55:50;;;;;;;30.65;14.00;;;;;;;-2.35;100.00;101725.44;5050989;28;20411;-81
2024/03/08 02:58:23;;;;;;;30.08;13.85;;;;;;;-2.38;100.00;101723.13;5061296;28;20502;-83
2024/03/08 03:00:57;;;;;;;32.60;14.00;;;;;;;-2.40;100.00;101717.97;5057752;28;20425;-81
2024/03/08 03:03:26;;;;;;;31.93;14.60;;;;;;;-2.38;100.00;101720.47;5057954;28;20440;-80
2024/03/08 03:06:00;;;;;;;29.63;14.05;;;;;;;-2.49;100.00;101718.16;5059077;28;20431;-82
2024/03/08 03:08:35;;;;;;;31.52;14.07;;;;;;;-2.50;100.00;101708.47;5062766;28;20430;-81
2024/03/08 03:11:08;;;;;;;30.70;13.75;;;;;;;-2.52;100.00;101711.31;5060813;28;20422;-81
2024/03/08 03:13:42;;;;;;;33.10;14.60;;;;;;;-2.49;100.00;101710.97;5061965;28;20894;-82
2024/03/08 03:16:19;;;;;;;31.33;14.55;;;;;;;-2.52;100.00;101713.16;5062800;28;20413;-82
2024/03/08 03:18:48;;;;;;;32.40;14.75;;;;;;;-2.51;100.00;101709.47;5063659;28;20421;-81
2024/03/08 03:21:21;;;;;;;31.25;14.18;;;;;;;-2.52;100.00;101715.81;5057852;28;20418;-81
2024/03/08 03:23:56;;;;;;;31.67;14.40;;;;;;;-2.58;100.00;101707.50;5062008;28;20430;-81
2024/03/08 03:26:29;;;;;;;30.10;13.93;;;;;;;-2.52;100.00;101707.84;5058936;28;20425;-81
2024/03/08 03:29:05;;;;;;;32.60;14.70;;;;;;;-2.54;100.00;101699.16;5060988;28;20434;-82
2024/03/08 03:31:34;;;;;;;35.90;15.07;;;;;;;-2.53;100.00;101708.81;5063264;28;20440;-81
2024/03/08 03:34:08;;;;;;;34.83;14.52;;;;;;;-2.54;100.00;101702.66;5058654;28;20428;-80
2024/03/08 03:36:45;;;;;;;33.40;14.35;;;;;;;-2.54;100.00;101707.16;5060701;28;20411;-82
2024/03/08 03:39:21;;;;;;;32.60;13.82;;;;;;;-2.52;100.00;101702.50;5059388;28;20425;-82
2024/03/08 03:41:54;;;;;;;32.72;14.10;;;;;;;-2.48;100.00;101696.66;5057748;28;20417;-82
2024/03/08 03:44:27;;;;;;;31.35;13.65;;;;;;;-2.53;100.00;101698.16;5061488;28;20450;-82
2024/03/08 03:46:56;;;;;;;33.43;14.90;;;;;;;-2.55;100.00;101693.00;5056489;28;20441;-82
2024/03/08 03:49:29;;;;;;;30.88;13.88;;;;;;;-2.59;100.00;101697.00;5058465;28;20448;-81
2024/03/08 03:51:57;;;;;;;31.65;14.02;;;;;;;-2.57;100.00;101692.31;5062414;28;20895;-80
2024/03/08 03:54:33;;;;;;;30.80;14.48;;;;;;;-2.60;100.00;101698.81;5054141;28;20772;-81
2024/03/08 03:57:07;;;;;;;32.22;13.95;;;;;;;-2.62;100.00;101698.16;5062991;28;20410;-82
2024/03/08 03:59:36;;;;;;;30.35;14.05;;;;;;;-2.68;100.00;101687.34;5059666;28;20909;-82
2024/03/08 04:02:09;;;;;;;30.75;13.65;;;;;;;-2.72;100.00;101696.66;5075969;28;20428;-82
2024/03/08 04:04:44;;;;;;;29.67;13.70;;;;;;;-2.67;100.00;101697.81;5059366;28;20422;-81
2024/03/08 04:07:17;;;;;;;30.45;13.77;;;;;;;-2.69;100.00;101696.31;5057042;28;20416;-82
2024/03/08 04:09:52;;;;;;;34.67;13.90;;;;;;;-2.71;100.00;101690.34;5050528;28;20436;-81
2024/03/08 04:12:20;;;;;;;32.40;14.55;;;;;;;-2.72;100.00;101694.00;5060421;28;20429;-82
2024/03/08 04:14:55;;;;;;;34.08;15.10;;;;;;;-2.73;100.00;101687.84;5055681;28;20418;-82
2024/03/08 04:17:24;;;;;;;31.75;14.15;;;;;;;-2.68;100.00;101680.19;5056096;28;20419;-82
2024/03/08 04:19:52;;;;;;;29.33;14.15;;;;;;;-2.66;100.00;101688.00;5057161;28;21605;-82
2024/03/08 04:22:28;;;;;;;34.38;14.57;;;;;;;-2.56;100.00;101684.16;5056696;28;20920;-82
2024/03/08 04:24:58;;;;;;;34.15;14.45;;;;;;;-2.62;100.00;101678.69;5058820;28;20426;-81
2024/03/08 04:27:32;;;;;;;32.42;14.32;;;;;;;-2.58;100.00;101683.50;5055838;28;20441;-80
2024/03/08 04:30:07;;;;;;;29.20;14.20;;;;;;;-2.67;100.00;101681.84;5054776;28;20440;-81
2024/03/08 04:32:41;;;;;;;31.63;14.18;;;;;;;-2.71;100.00;101677.84;5062526;28;21024;-81
2024/03/08 04:35:09;;;;;;;32.35;13.93;;;;;;;-2.70;100.00;101679.50;5053063;28;20419;-82
2024/03/08 04:37:43;;;;;;;29.98;14.15;;;;;;;-2.70;100.00;101684.03;5062032;28;20431;-82
2024/03/08 04:40:18;;;;;;;32.92;14.55;;;;;;;-2.69;100.00;101677.66;5063164;28;20748;-81
2024/03/08 04:42:53;;;;;;;32.55;14.75;;;;;;;-2.70;100.00;101681.34;5061376;28;20423;-81
2024/03/08 04:45:26;;;;;;;32.93;14.10;;;;;;;-2.82;100.00;101688.84;5059148;28;20428;-81
2024/03/08 04:47:55;;;;;;;31.50;14.13;;;;;;;-2.72;100.00;101691.34;5057065;28;20488;-81
2024/03/08 04:50:24;;;;;;;35.15;15.30;;;;;;;-2.74;100.00;101689.66;5071929;28;20448;-82
2024/03/08 04:52:57;;;;;;;33.65;14.65;;;;;;;-2.66;100.00;101680.03;5058460;28;20428;-82
2024/03/08 04:55:32;;;;;;;32.90;14.43;;;;;;;-2.75;100.00;101673.84;5062794;28;20425;-81
2024/03/08 04:58:00;;;;;;;30.92;14.88;;;;;;;-2.84;100.00;101677.53;5040968;28;20488;-81
2024/03/08 05:00:29;;;;;;;29.58;13.88;;;;;;;-2.87;100.00;101684.03;5056961;28;20419;-82
2024/03/08 05:03:02;;;;;;;33.58;14.02;;;;;;;-2.91;100.00;101682.69;5057690;28;20431;-81
2024/03/08 05:05:30;;;;;;;32.28;14.30;;;;;;;-3.03;100.00;101684.00;5059590;28;20768;-81
2024/03/08 05:07:59;;;;;;;29.60;13.82;;;;;;;-3.15;100.00;101676.34;5058607;28;20729;-82
2024/03/08 05:10:33;;;;;;;31.63;13.55;;;;;;;-3.17;100.00;101672.19;5060602;28;20421;-82
2024/03/08 05:13:02;;;;;;;30.05;14.27;;;;;;;-3.18;100.00;101681.97;5057577;28;20881;-83
2024/03/08 05:15:34;;;;;;;31.83;14.68;;;;;;;-3.20;100.00;101678.66;5054621;28;20418;-80
2024/03/08 05:18:08;;;;;;;32.80;14.55;;;;;;;-3.21;100.00;101676.16;5060623;28;20427;-81
2024/03/08 05:20:41;;;;;;;38.25;16.80;;;;;;;-3.19;100.00;101680.34;5054987;28;20435;-80
2024/03/08 05:23:10;;;;;;;34.93;16.43;;;;;;;-3.29;100.00;101675.13;5057320;28;20417;-80
2024/03/08 05:25:44;;;;;;;32.42;15.40;;;;;;;-3.29;100.00;101669.81;5055227;28;20456;-81
2024/03/08 05:28:13;;;;;;;36.83;16.23;;;;;;;-3.26;100.00;101661.50;5055040;28;20427;-81
2024/03/08 05:30:41;;;;;;;38.67;16.88;;;;;;;-3.26;100.00;101666.84;5055190;28;20417;-81
2024/03/08 05:33:14;;;;;;;34.88;15.60;;;;;;;-3.06;100.00;101661.19;5064136;28;20403;-80
2024/03/08 05:35:43;;;;;;;37.87;17.40;;;;;;;-3.09;100.00;101665.03;5063371;28;20897;-80
2024/03/08 05:38:12;;;;;;;37.10;16.60;;;;;;;-3.05;100.00;101665.53;5055863;28;20417;-81
2024/03/08 05:40:43;;;;;;;49.22;17.67;;;;;;;-3.03;100.00;101666.19;5056464;28;20425;-80
2024/03/08 05:43:19;;;;;;;44.90;17.98;;;;;;;-2.99;100.00;101659.53;5060280;28;20789;-81
2024/03/08 05:45:52;;;;;;;41.05;18.48;;;;;;;-2.94;100.00;101659.88;5044250;28;20436;-79
2024/03/08 05:48:26;;;;;;;44.55;18.33;;;;;;;-2.85;100.00;101659.88;5056380;28;20419;-80
2024/03/08 05:50:54;;;;;;;39.58;17.65;;;;;;;-2.61;100.00;101661.66;5056469;28;20911;-79
2024/03/08 05:53:22;;;;;;;57.30;18.65;;;;;;;-2.72;100.00;101660.22;5058141;28;20800;-79
2024/03/08 05:55:56;;;;;;;40.85;18.20;;;;;;;-2.69;100.00;101664.34;5058937;28;20414;-80
2024/03/08 05:58:31;;;;;;;43.75;18.92;;;;;;;-2.70;100.00;101668.03;5064847;28;20430;-80
2024/03/08 06:01:07;;;;;;;43.38;18.52;;;;;;;-2.62;100.00;101660.84;5069732;28;20423;-79
2024/03/08 06:03:35;;;;;;;42.38;18.90;;;;;;;-2.58;100.00;101662.19;5055492;28;20427;-80
2024/03/08 06:06:09;;;;;;;44.73;19.07;;;;;;;-2.61;100.00;101656.34;5055189;28;20428;-80
2024/03/08 06:08:37;;;;;;;41.67;18.70;;;;;;;-2.54;100.00;101665.34;5054503;28;20430;-79
2024/03/08 06:11:05;;;;;;;40.47;18.77;;;;;;;-2.44;100.00;101666.00;5055515;28;20413;-79
2024/03/08 06:13:35;;;;;;;46.58;19.40;;;;;;;-2.49;100.00;101671.00;5056702;28;20437;-79
2024/03/08 06:16:09;;;;;;;43.40;18.90;;;;;;;-2.34;100.00;101670.31;5055200;28;20419;-80
2024/03/08 06:18:42;;;;;;;44.57;20.20;;;;;;;-2.35;100.00;101656.13;5053963;28;20483;-80
2024/03/08 06:21:16;;;;;;;42.25;19.17;;;;;;;-2.41;100.00;101654.16;5056300;28;20442;-79
2024/03/08 06:23:49;;;;;;;44.05;19.52;;;;;;;-2.33;100.00;101656.00;5053402;28;20439;-79
2024/03/08 06:26:22;;;;;;;43.17;19.10;;;;;;;-2.35;100.00;101660.66;5055895;28;20424;-79
2024/03/08 06:28:57;;;;;;;40.15;18.77;;;;;;;-2.27;100.00;101656.13;5054944;28;20448;-78
2024/03/08 06:31:30;;;;;;;44.53;19.23;;;;;;;-2.20;100.00;101650.94;5051802;28;20531;-79
2024/03/08 06:34:07;;;;;;;43.72;18.92;;;;;;;-2.11;100.00;101657.91;5052412;28;20437;-78
2024/03/08 06:36:40;;;;;;;43.22;18.70;;;;;;;-2.15;100.00;101656.59;5058957;28;20438;-79
2024/03/08 06:39:14;;;;;;;43.63;18.80;;;;;;;-2.16;100.00;101657.59;5053956;28;20452;-79
2024/03/08 06:41:44;;;;;;;43.47;18.95;;;;;;;-2.09;100.00;101658.56;5053647;28;20432;-79
2024/03/08 06:44:14;;;;;;;43.28;19.73;;;;;;;-1.88;100.00;101662.50;5053480;28;20421;-81
2024/03/08 06:46:47;;;;;;;39.65;18.88;;;;;;;-1.74;100.00;101664.44;5061658;28;20432;-79
2024/03/08 06:49:21;;;;;;;46.92;19.60;;;;;;;-1.73;100.00;101663.44;5053963;28;20432;-79
2024/03/08 06:51:54;;;;;;;41.22;18.55;;;;;;;-1.75;100.00;101660.09;5055444;28;20427;-79
2024/03/08 06:54:23;;;;;;;42.72;19.15;;;;;;;-1.82;100.00;101653.81;5053244;28;20430;-79
2024/03/08 06:56:56;;;;;;;37.10;17.80;;;;;;;-1.78;100.00;101656.94;5055408;28;20424;-80
2024/03/08 06:59:31;;;;;;;39.88;19.05;;;;;;;-1.74;100.00;101648.44;5037302;28;20907;-80
2024/03/08 07:02:00;;;;;;;40.33;18.55;;;;;;;-1.61;100.00;101645.19;5054561;28;20425;-79
2024/03/08 07:04:33;;;;;;;40.42;18.08;;;;;;;-1.66;100.00;101646.72;5054637;28;20425;-79
2024/03/08 07:07:02;;;;;;;37.10;18.33;;;;;;;-1.66;100.00;101655.56;5059754;28;20433;-79
2024/03/08 07:09:35;;;;;;;41.33;19.95;;;;;;;-1.75;100.00;101653.94;5059118;28;20437;-80
2024/03/08 07:12:09;;;;;;;42.33;20.13;;;;;;;-1.71;100.00;101653.41;5055811;28;20920;-80
2024/03/08 07:14:40;;;;;;;41.05;18.88;;;;;;;-1.64;100.00;101653.56;5057650;28;20431;-80
2024/03/08 07:17:09;;;;;;;42.22;18.48;;;;;;;-1.82;100.00;101651.13;5048982;28;20417;-81
2024/03/08 07:19:42;;;;;;;40.90;18.80;;;;;;;-1.81;100.00;101651.97;5054730;28;20423;-79
2024/03/08 07:22:11;;;;;;;39.50;18.48;;;;;;;-1.62;100.00;101650.72;5065902;28;20425;-80
2024/03/08 07:24:55;;;;;;;41.38;19.27;;;;;;;-1.84;100.00;101649.66;5055203;28;20424;-81
2024/03/08 07:27:24;;;;;;;40.20;19.02;;;;;;;-1.76;100.00;101644.28;5053488;28;20415;-79
2024/03/08 07:29:55;;;;;;;38.53;18.83;;;;;;;-1.54;100.00;101639.97;5048420;28;20431;-81
2024/03/08 07:32:29;;;;;;;42.08;18.98;;;;;;;-1.52;100.00;101637.13;5051795;28;20431;-81
2024/03/08 07:35:03;;;;;;;42.88;19.58;;;;;;;-1.35;100.00;101644.03;5053837;28;20416;-82
2024/03/08 07:37:32;;;;;;;43.22;19.35;;;;;;;-1.37;100.00;101644.22;5054306;28;20433;-82
2024/03/08 07:40:07;;;;;;;40.33;19.02;;;;;;;-1.44;100.00;101640.56;5051786;28;20433;-82
2024/03/08 07:42:40;;;;;;;43.40;19.40;;;;;;;-1.45;100.00;101643.44;5052084;28;20684;-82
2024/03/08 07:45:16;;;;;;;42.40;19.73;;;;;;;-1.34;100.00;101642.19;5055374;28;20434;-82
2024/03/08 07:47:50;;;;;;;45.53;20.92;;;;;;;-1.47;100.00;101640.94;5053080;28;20431;-81
2024/03/08 07:50:19;;;;;;;42.80;20.00;;;;;;;-1.34;100.00;101643.03;5020889;28;20431;-81
2024/03/08 07:52:52;;;;;;;43.75;19.27;;;;;;;-1.29;100.00;101646.00;5044102;28;20435;-83
2024/03/08 07:55:24;;;;;;;45.20;20.98;;;;;;;-1.29;100.00;101647.84;5047835;28;20463;-79
2024/03/08 07:57:52;;;;;;;45.95;21.13;;;;;;;-1.28;100.00;101647.66;5047482;28;20424;-83
2024/03/08 08:00:22;;;;;;;47.60;20.70;;;;;;;-1.06;100.00;101650.53;5048870;28;20509;-81
2024/03/08 08:02:50;;;;;;;46.13;21.15;;;;;;;-1.14;100.00;101654.06;5054279;28;20455;-81
2024/03/08 08:05:18;;;;;;;46.72;20.65;;;;;;;-1.04;100.00;101644.00;5060709;28;20418;-82
2024/03/08 08:07:47;;;;;;;44.75;20.90;;;;;;;-0.99;100.00;101647.97;5061422;28;20450;-82
2024/03/08 08:10:22;;;;;;;47.30;20.70;;;;;;;-0.89;100.00;101644.03;5062884;28;20430;-79
2024/03/08 08:12:57;;;;;;;45.95;21.10;;;;;;;-0.84;100.00;101631.97;5074125;28;20432;-80
2024/03/08 08:15:33;;;;;;;44.42;20.52;;;;;;;-0.59;100.00;101628.06;5076913;28;20436;-80
2024/03/08 08:18:06;;;;;;;47.23;20.90;;;;;;;-0.66;100.00;101632.47;5078249;28;20415;-81
2024/03/08 08:20:40;;;;;;;51.40;21.20;;;;;;;-0.61;100.00;101630.06;5069731;28;21547;-80
2024/03/08 08:23:08;;;;;;;43.88;20.83;;;;;;;-0.50;100.00;101625.31;5057452;28;20446;-79
2024/03/08 08:25:38;;;;;;;44.25;21.02;;;;;;;-0.27;100.00;101626.06;5073552;28;20418;-82
2024/03/08 08:28:12;;;;;;;45.45;21.95;;;;;;;-0.20;100.00;101629.63;5061523;28;20426;-81
2024/03/08 08:30:42;;;;;;;46.90;20.37;;;;;;;-0.30;100.00;101618.41;5055232;28;20533;-79
2024/03/08 08:33:15;;;;;;;44.60;20.50;;;;;;;-0.24;100.00;101620.31;5042579;28;20430;-82
2024/03/08 08:35:43;;;;;;;45.67;21.17;;;;;;;-0.18;100.00;101629.44;5057699;28;20425;-79
2024/03/08 08:38:17;;;;;;;45.40;20.77;;;;;;;-0.10;100.00;101625.88;5058071;28;20417;-79
2024/03/08 08:40:50;;;;;;;44.10;20.85;;;;;;;0.03;100.00;101630.53;5060379;28;20430;-79
2024/03/08 08:43:25;;;;;;;45.07;20.57;;;;;;;-0.03;100.00;101630.31;5045873;28;20492;-82
2024/03/08 08:45:55;;;;;;;45.30;20.65;;;;;;;0.18;100.00;101623.34;5059305;28;20437;-80
2024/03/08 08:48:29;;;;;;;44.60;20.80;;;;;;;0.22;100.00;101624.63;5034712;28;20433;-81
2024/03/08 08:51:02;;;;;;;43.63;20.80;;;;;;;0.38;100.00;101623.56;5008519;28;20779;-78
2024/03/08 08:53:36;;;;;;;43.95;20.67;;;;;;;0.47;100.00;101626.94;5035166;28;20430;-78
2024/03/08 08:56:12;;;;;;;39.53;19.58;;;;;;;0.45;100.00;101616.44;5038169;28;20432;-78
2024/03/08 08:58:46;;;;;;;40.28;19.58;;;;;;;0.48;100.00;101615.22;5054134;28;20440;-77
2024/03/08 09:01:18;;;;;;;42.58;19.05;;;;;;;0.46;100.00;101615.41;5050131;28;20955;-78
2024/03/08 09:03:51;;;;;;;35.60;18.73;;;;;;;0.68;100.00;101612.78;5035301;28;21208;-78
2024/03/08 09:06:25;;;;;;;40.65;19.63;;;;;;;0.72;100.00;101607.84;5055151;28;20433;-80
2024/03/08 09:08:59;;;;;;;37.92;19.23;;;;;;;0.89;100.00;101605.75;5036936;28;20433;-79
2024/03/08 09:11:32;;;;;;;38.05;19.05;;;;;;;0.90;100.00;101604.69;5053116;28;20421;-78
2024/03/08 09:14:01;;;;;;;36.20;18.50;;;;;;;0.91;100.00;101601.84;5061164;28;20421;-77
2024/03/08 09:16:36;;;;;;;38.15;18.45;;;;;;;1.00;100.00;101595.31;5061358;28;20425;-80
2024/03/08 09:19:10;;;;;;;39.95;20.27;;;;;;;1.02;100.00;101600.47;5058443;28;20427;-79
2024/03/08 09:21:44;;;;;;;43.13;19.65;;;;;;;1.25;100.00;101592.22;5062662;28;20433;-80
2024/03/08 09:24:17;;;;;;;37.03;18.73;;;;;;;1.28;100.00;101588.31;5056228;28;20424;-78
2024/03/08 09:26:50;;;;;;;37.90;17.70;;;;;;;1.36;100.00;101593.53;5034179;28;22379;-78
2024/03/08 09:29:23;;;;;;;35.70;17.55;;;;;;;1.48;100.00;101589.28;5023014;28;20423;-81
2024/03/08 09:31:53;;;;;;;36.08;18.50;;;;;;;1.53;100.00;101586.00;5035086;28;20427;-77
2024/03/08 09:34:22;;;;;;;38.78;18.92;;;;;;;1.53;100.00;101583.31;5027052;28;20440;-77
2024/03/08 09:36:50;;;;;;;35.40;16.77;;;;;;;1.89;100.00;101579.56;5034390;28;20815;-80
2024/03/08 09:39:20;;;;;;;34.53;17.65;;;;;;;1.61;100.00;101579.66;5018646;28;20427;-77
2024/03/08 09:41:49;;;;;;;35.45;17.60;;;;;;;1.79;100.00;101579.13;5037761;28;20431;-79
2024/03/08 09:44:24;;;;;;;36.93;18.27;;;;;;;1.75;100.00;101567.13;5038497;28;20490;-77
2024/03/08 09:46:55;;;;;;;36.75;18.23;;;;;;;1.89;100.00;101562.66;5013843;28;20436;-79
2024/03/08 09:49:28;;;;;;;33.22;17.55;;;;;;;1.84;100.00;101560.56;5036235;28;20462;-80
2024/03/08 09:52:04;;;;;;;34.25;17.80;;;;;;;1.84;100.00;101558.72;5007670;28;20435;-78
2024/03/08 09:54:38;;;;;;;35.47;17.60;;;;;;;1.91;100.00;101558.75;5030872;28;21010;-79
2024/03/08 09:57:09;;;;;;;33.92;17.65;;;;;;;2.04;100.00;101542.69;5036166;28;21003;-79
2024/03/08 09:59:48;;;;;;;34.45;17.48;;;;;;;2.09;100.00;101550.13;5031965;28;20423;-78
2024/03/08 10:02:22;;;;;;;32.42;17.92;;;;;;;2.16;100.00;101548.28;5012444;28;20439;-78
2024/03/08 10:04:58;;;;;;;33.97;17.90;;;;;;;2.35;100.00;101544.00;5028722;28;20435;-78
2024/03/08 10:07:26;;;;;;;33.97;17.40;;;;;;;2.54;100.00;101542.38;5033852;28;20424;-79
2024/03/08 10:09:54;;;;;;;34.53;17.55;;;;;;;2.59;100.00;101530.19;5041489;28;20432;-79
2024/03/08 10:12:23;;;;;;;32.17;17.35;;;;;;;2.72;100.00;101522.09;5010090;28;20427;-79
2024/03/08 10:14:56;;;;;;;31.83;16.70;;;;;;;2.51;100.00;101525.81;5034869;28;20438;-78
2024/03/08 10:17:32;;;;;;;31.70;16.07;;;;;;;2.61;100.00;101520.03;5022486;28;20430;-78
2024/03/08 10:20:15;;;;;;;31.55;17.45;;;;;;;2.93;100.00;101513.03;5036544;28;20935;-78
2024/03/08 10:22:49;;;;;;;29.95;16.63;;;;;;;2.96;100.00;101511.78;5020845;28;20432;-78
2024/03/08 10:25:17;;;;;;;32.83;15.88;;;;;;;2.99;100.00;101505.97;5013964;28;20427;-77
2024/03/08 10:27:51;;;;;;;32.17;16.35;;;;;;;3.00;100.00;101488.81;5037284;28;20459;-80
2024/03/08 10:30:20;;;;;;;30.98;16.05;;;;;;;3.08;100.00;101485.06;5023530;28;21068;-77
2024/03/08 10:32:55;;;;;;;30.13;16.33;;;;;;;3.25;100.00;101482.78;5013480;28;20439;-78
2024/03/08 10:35:28;;;;;;;29.00;15.20;;;;;;;3.25;100.00;101486.28;5041908;28;20911;-78
2024/03/08 10:38:07;;;;;;;26.67;14.60;;;;;;;3.25;100.00;101478.22;5012252;28;20769;-78
2024/03/08 10:40:36;;;;;;;29.45;14.48;;;;;;;3.39;100.00;101482.50;5034517;28;21257;-77
2024/03/08 10:43:05;;;;;;;29.42;14.80;;;;;;;3.35;100.00;101485.84;5031456;28;20430;-79
2024/03/08 10:45:41;;;;;;;27.55;14.93;;;;;;;3.45;100.00;101472.75;5018096;28;20432;-77
2024/03/08 10:48:31;;;;;;;29.57;16.23;;;;;;;3.34;100.00;101468.88;5012727;28;20434;-78
2024/03/08 10:51:07;;;;;;;27.98;15.00;;;;;;;3.40;100.00;101467.19;5011333;28;20435;-78
2024/03/08 10:53:41;;;;;;;32.00;16.13;;;;;;;3.42;100.00;101459.72;5012328;28;20420;-79
2024/03/08 10:56:15;;;;;;;31.58;15.23;;;;;;;3.43;100.00;101463.25;5010578;28;21904;-79
2024/03/08 10:58:49;;;;;;;29.70;15.55;;;;;;;3.73;100.00;101463.53;5015021;28;20428;-80
2024/03/08 11:01:24;;;;;;;29.97;15.37;;;;;;;3.58;100.00;101455.75;5038365;28;20434;-81
2024/03/08 11:03:58;;;;;;;27.83;14.43;;;;;;;3.71;100.00;101462.91;5033647;28;20472;-79
2024/03/08 11:06:31;;;;;;;29.65;15.73;;;;;;;3.69;100.00;101446.97;5018845;28;20432;-80
2024/03/08 11:09:00;;;;;;;29.05;15.50;;;;;;;3.60;100.00;101442.06;5038794;28;20415;-78
2024/03/08 11:11:31;;;;;;;30.77;15.80;;;;;;;3.79;100.00;101443.81;5024370;28;20436;-78
2024/03/08 11:14:05;;;;;;;30.98;16.50;;;;;;;3.94;100.00;101432.75;5018880;28;20428;-80
2024/03/08 11:16:43;;;;;;;30.85;15.60;;;;;;;4.08;100.00;101430.81;5038787;28;20419;-78
2024/03/08 11:19:31;;;;;;;32.08;15.60;;;;;;;4.06;100.00;101424.78;5042669;28;22079;-77
2024/03/08 11:22:00;;;;;;;28.60;15.70;;;;;;;3.97;100.00;101418.84;5038638;28;20993;-77
2024/03/08 11:24:42;;;;;;;29.70;16.00;;;;;;;4.11;100.00;101416.91;5021819;28;20463;-78
2024/03/08 11:27:16;;;;;;;29.38;15.73;;;;;;;4.16;100.00;101417.06;5039545;28;20431;-78